sensor_id;sensor_type;location;lat;lon;timestamp;pressure;altitude;pressure_sealevel;temperature;humidity
67840;BME280;54636;51.684;5.142;2024-03-23T00:54:02;101153.84;;;6.58;100.00
67840;BME280;54636;51.684;5.142;2024-03-23T00:56:28;101148.75;;;6.60;100.00
67840;BME280;54636;51.684;5.142;2024-03-23T00:58:54;101142.31;;;6.57;100.00
67840;BME280;54636;51.684;5.142;2024-03-23T01:01:19;101134.97;;;6.58;100.00
67840;BME280;54636;51.684;5.142;2024-03-23T01:03:44;101119.06;;;6.60;100.00
67840;BME280;54636;51.684;5.142;2024-03-23T01:06:10;101114.88;;;6.59;100.00
67840;BME280;54636;51.684;5.142;2024-03-23T01:08:35;101109.16;;;6.57;100.00
67840;BME280;54636;51.684;5.142;2024-03-23T01:11:01;101101.22;;;6.53;100.00
67840;BME280;54636;51.684;5.142;2024-03-23T01:13:28;101096.56;;;6.54;100.00
67840;BME280;54636;51.684;5.142;2024-03-23T01:15:54;101083.81;;;6.54;100.00
67840;BME280;54636;51.684;5.142;2024-03-23T01:18:20;101092.06;;;6.51;100.00
67840;BME280;54636;51.684;5.142;2024-03-23T01:20:47;101095.97;;;6.50;100.00
67840;BME280;54636;51.684;5.142;2024-03-23T01:23:12;101102.09;;;6.50;100.00
67840;BME280;54636;51.684;5.142;2024-03-23T01:25:38;101102.09;;;6.50;100.00
67840;BME280;54636;51.684;5.142;2024-03-23T01:28:04;101098.66;;;6.50;100.00
67840;BME280;54636;51.684;5.142;2024-03-23T01:30:31;101092.66;;;6.46;100.00
67840;BME280;54636;51.684;5.142;2024-03-23T01:32:57;101099.56;;;6.47;100.00
67840;BME280;54636;51.684;5.142;2024-03-23T01:35:22;101099.38;;;6.41;100.00
67840;BME280;54636;51.684;5.142;2024-03-23T01:37:48;101097.44;;;6.42;100.00
67840;BME280;54636;51.684;5.142;2024-03-23T01:40:13;101095.75;;;6.35;100.00
67840;BME280;54636;51.684;5.142;2024-03-23T01:42:39;101091.25;;;6.32;100.00
67840;BME280;54636;51.684;5.142;2024-03-23T01:45:07;101085.84;;;6.32;100.00
67840;BME280;54636;51.684;5.142;2024-03-23T01:47:33;101075.19;;;6.28;100.00
67840;BME280;54636;51.684;5.142;2024-03-23T01:49:59;101066.81;;;6.26;100.00
67840;BME280;54636;51.684;5.142;2024-03-23T01:52:25;101073.69;;;6.27;100.00
67840;BME280;54636;51.684;5.142;2024-03-23T01:54:50;101073.69;;;6.27;100.00
67840;BME280;54636;51.684;5.142;2024-03-23T01:57:16;101066.81;;;6.26;100.00
67840;BME280;54636;51.684;5.142;2024-03-23T01:59:42;101053.44;;;6.23;100.00
67840;BME280;54636;51.684;5.142;2024-03-23T02:02:07;101052.69;;;6.22;100.00
67840;BME280;54636;51.684;5.142;2024-03-23T02:04:33;101065.75;;;6.24;100.00
67840;BME280;54636;51.684;5.142;2024-03-23T02:06:58;101053.59;;;6.19;100.00
67840;BME280;54636;51.684;5.142;2024-03-23T02:09:23;101061.69;;;6.19;100.00
67840;BME280;54636;51.684;5.142;2024-03-23T02:11:49;101049.84;;;6.17;100.00
67840;BME280;54636;51.684;5.142;2024-03-23T02:14:15;101059.41;;;6.18;100.00
67840;BME280;54636;51.684;5.142;2024-03-23T02:16:40;101051.16;;;6.12;100.00
67840;BME280;54636;51.684;5.142;2024-03-23T02:19:06;101046.97;;;6.11;100.00
67840;BME280;54636;51.684;5.142;2024-03-23T02:21:32;101042.75;;;6.10;100.00
67840;BME280;54636;51.684;5.142;2024-03-23T02:23:59;101046.66;;;6.09;100.00
67840;BME280;54636;51.684;5.142;2024-03-23T02:26:24;101024.84;;;5.94;100.00
67840;BME280;54636;51.684;5.142;2024-03-23T02:28:50;101044.22;;;6.02;100.00
67840;BME280;54636;51.684;5.142;2024-03-23T02:31:15;101048.25;;;5.98;100.00
67840;BME280;54636;51.684;5.142;2024-03-23T02:33:40;101053.63;;;5.98;100.00
67840;BME280;54636;51.684;5.142;2024-03-23T02:36:06;101055.59;;;5.97;100.00
67840;BME280;54636;51.684;5.142;2024-03-23T02:38:32;101047.94;;;5.95;100.00
67840;BME280;54636;51.684;5.142;2024-03-23T02:41:04;101052.56;;;5.95;100.00
67840;BME280;54636;51.684;5.142;2024-03-23T02:43:29;101057.66;;;5.93;100.00
67840;BME280;54636;51.684;5.142;2024-03-23T02:45:55;101051.31;;;5.87;100.00
67840;BME280;54636;51.684;5.142;2024-03-23T02:48:20;101049.78;;;5.77;100.00
67840;BME280;54636;51.684;5.142;2024-03-23T02:50:45;101050.91;;;5.67;100.00
67840;BME280;54636;51.684;5.142;2024-03-23T02:53:11;101026.97;;;5.47;100.00
67840;BME280;54636;51.684;5.142;2024-03-23T02:55:36;101050.78;;;5.48;100.00
67840;BME280;54636;51.684;5.142;2024-03-23T02:58:01;101049.84;;;5.42;100.00
67840;BME280;54636;51.684;5.142;2024-03-23T03:00:28;101050.53;;;5.34;100.00
67840;BME280;54636;51.684;5.142;2024-03-23T03:02:53;101051.22;;;5.25;100.00
67840;BME280;54636;51.684;5.142;2024-03-23T03:05:19;101052.66;;;5.17;100.00
67840;BME280;54636;51.684;5.142;2024-03-23T03:07:44;101053.97;;;5.12;100.00
67840;BME280;54636;51.684;5.142;2024-03-23T03:10:09;101056.91;;;5.05;100.00
67840;BME280;54636;51.684;5.142;2024-03-23T03:12:36;101054.44;;;4.98;100.00
67840;BME280;54636;51.684;5.142;2024-03-23T03:15:03;101049.63;;;4.93;100.00
67840;BME280;54636;51.684;5.142;2024-03-23T03:17:28;101051.34;;;4.87;100.00
67840;BME280;54636;51.684;5.142;2024-03-23T03:19:54;101046.94;;;4.80;100.00
67840;BME280;54636;51.684;5.142;2024-03-23T03:22:21;101045.25;;;4.74;100.00
67840;BME280;54636;51.684;5.142;2024-03-23T03:24:47;101039.88;;;4.61;100.00
67840;BME280;54636;51.684;5.142;2024-03-23T03:27:12;101045.16;;;4.64;100.00
67840;BME280;54636;51.684;5.142;2024-03-23T03:29:37;101048.81;;;4.58;100.00
67840;BME280;54636;51.684;5.142;2024-03-23T03:32:03;101050.13;;;4.53;100.00
67840;BME280;54636;51.684;5.142;2024-03-23T03:34:29;101038.41;;;4.47;100.00
67840;BME280;54636;51.684;5.142;2024-03-23T03:36:54;101037.03;;;4.43;100.00
67840;BME280;54636;51.684;5.142;2024-03-23T03:39:19;101039.41;;;4.41;100.00
67840;BME280;54636;51.684;5.142;2024-03-23T03:41:45;101045.19;;;4.39;100.00
67840;BME280;54636;51.684;5.142;2024-03-23T03:44:10;101027.66;;;4.35;100.00
67840;BME280;54636;51.684;5.142;2024-03-23T03:46:36;101029.72;;;4.30;100.00
67840;BME280;54636;51.684;5.142;2024-03-23T03:49:01;101031.44;;;4.24;100.00
67840;BME280;54636;51.684;5.142;2024-03-23T03:51:26;101029.94;;;4.23;100.00
67840;BME280;54636;51.684;5.142;2024-03-23T03:53:52;101037.34;;;4.19;100.00
67840;BME280;54636;51.684;5.142;2024-03-23T03:56:17;101031.66;;;4.17;100.00
67840;BME280;54636;51.684;5.142;2024-03-23T03:58:43;101030.25;;;4.13;100.00
67840;BME280;54636;51.684;5.142;2024-03-23T04:01:08;101015.19;;;4.03;100.00
67840;BME280;54636;51.684;5.142;2024-03-23T04:03:34;101018.22;;;4.05;100.00
67840;BME280;54636;51.684;5.142;2024-03-23T04:05:59;101017.44;;;4.04;100.00
67840;BME280;54636;51.684;5.142;2024-03-23T04:08:25;101020.47;;;4.06;100.00
67840;BME280;54636;51.684;5.142;2024-03-23T04:10:50;101017.13;;;4.02;100.00
67840;BME280;54636;51.684;5.142;2024-03-23T04:13:15;101021.44;;;4.00;100.00
67840;BME280;54636;51.684;5.142;2024-03-23T04:15:41;101013.47;;;3.96;100.00
67840;BME280;54636;51.684;5.142;2024-03-23T04:18:07;101018.94;;;3.92;100.00
67840;BME280;54636;51.684;5.142;2024-03-23T04:20:32;101017.56;;;3.88;100.00
67840;BME280;54636;51.684;5.142;2024-03-23T04:22:58;101022.19;;;3.87;100.00
67840;BME280;54636;51.684;5.142;2024-03-23T04:25:24;101021.13;;;3.85;100.00
67840;BME280;54636;51.684;5.142;2024-03-23T04:27:49;101021.31;;;3.78;100.00
67840;BME280;54636;51.684;5.142;2024-03-23T04:30:15;101025.19;;;3.77;100.00
67840;BME280;54636;51.684;5.142;2024-03-23T04:32:40;101026.03;;;3.74;100.00
67840;BME280;54636;51.684;5.142;2024-03-23T04:35:07;101024.88;;;3.75;100.00
67840;BME280;54636;51.684;5.142;2024-03-23T04:37:36;101021.84;;;3.73;100.00
67840;BME280;54636;51.684;5.142;2024-03-23T04:40:02;101005.06;;;3.56;100.00
67840;BME280;54636;51.684;5.142;2024-03-23T04:42:28;101015.16;;;3.64;100.00
67840;BME280;54636;51.684;5.142;2024-03-23T04:44:54;101016.34;;;3.63;100.00
67840;BME280;54636;51.684;5.142;2024-03-23T04:47:19;101021.81;;;3.60;100.00
67840;BME280;54636;51.684;5.142;2024-03-23T04:49:45;101015.38;;;3.57;100.00
67840;BME280;54636;51.684;5.142;2024-03-23T04:52:10;101003.13;;;3.56;100.00
67840;BME280;54636;51.684;5.142;2024-03-23T04:54:35;101010.00;;;3.57;100.00
67840;BME280;54636;51.684;5.142;2024-03-23T04:57:01;101008.28;;;3.63;100.00
67840;BME280;54636;51.684;5.142;2024-03-23T04:59:26;100998.41;;;3.60;100.00
67840;BME280;54636;51.684;5.142;2024-03-23T05:01:51;101003.78;;;3.60;100.00
67840;BME280;54636;51.684;5.142;2024-03-23T05:04:17;100998.94;;;3.55;100.00
67840;BME280;54636;51.684;5.142;2024-03-23T05:06:42;100998.50;;;3.57;100.00
67840;BME280;54636;51.684;5.142;2024-03-23T05:09:08;100999.34;;;3.54;100.00
67840;BME280;54636;51.684;5.142;2024-03-23T05:11:39;101006.44;;;3.48;100.00
67840;BME280;54636;51.684;5.142;2024-03-23T05:14:05;100998.81;;;3.46;100.00
67840;BME280;54636;51.684;5.142;2024-03-23T05:16:30;101002.25;;;3.47;100.00
67840;BME280;54636;51.684;5.142;2024-03-23T05:18:55;101008.03;;;3.45;100.00
67840;BME280;54636;51.684;5.142;2024-03-23T05:21:21;100998.03;;;3.46;100.00
67840;BME280;54636;51.684;5.142;2024-03-23T05:23:46;101006.75;;;3.50;100.00
67840;BME280;54636;51.684;5.142;2024-03-23T05:26:13;101009.53;;;3.46;100.00
67840;BME280;54636;51.684;5.142;2024-03-23T05:28:38;100998.25;;;3.39;100.00
67840;BME280;54636;51.684;5.142;2024-03-23T05:31:03;101016.50;;;3.44;100.00
67840;BME280;54636;51.684;5.142;2024-03-23T05:33:29;101010.28;;;3.47;100.00
67840;BME280;54636;51.684;5.142;2024-03-23T05:35:58;101011.03;;;3.47;100.00
67840;BME280;54636;51.684;5.142;2024-03-23T05:38:24;101009.53;;;3.46;100.00
67840;BME280;54636;51.684;5.142;2024-03-23T05:40:59;101014.81;;;3.50;100.00
67840;BME280;54636;51.684;5.142;2024-03-23T05:43:26;101018.47;;;3.56;100.00
67840;BME280;54636;51.684;5.142;2024-03-23T05:45:59;101017.84;;;3.64;100.00
67840;BME280;54636;51.684;5.142;2024-03-23T05:48:26;101005.19;;;3.65;100.00
67840;BME280;54636;51.684;5.142;2024-03-23T05:50:52;101016.91;;;3.71;100.00
67840;BME280;54636;51.684;5.142;2024-03-23T05:53:18;101015.41;;;3.70;100.00
67840;BME280;54636;51.684;5.142;2024-03-23T05:55:43;101000.22;;;3.63;100.00
67840;BME280;54636;51.684;5.142;2024-03-23T05:58:09;101010.25;;;3.76;100.00
67840;BME280;54636;51.684;5.142;2024-03-23T06:00:35;101002.09;;;3.79;100.00
67840;BME280;54636;51.684;5.142;2024-03-23T06:03:01;100998.13;;;3.84;100.00
67840;BME280;54636;51.684;5.142;2024-03-23T06:05:26;101005.94;;;3.91;100.00
67840;BME280;54636;51.684;5.142;2024-03-23T06:07:52;101008.84;;;3.96;100.00
67840;BME280;54636;51.684;5.142;2024-03-23T06:10:18;101014.75;;;4.04;100.00
67840;BME280;54636;51.684;5.142;2024-03-23T06:12:43;101016.16;;;4.09;100.00
67840;BME280;54636;51.684;5.142;2024-03-23T06:15:10;101021.53;;;4.21;100.00
67840;BME280;54636;51.684;5.142;2024-03-23T06:17:36;101016.38;;;4.40;100.00
67840;BME280;54636;51.684;5.142;2024-03-23T06:20:02;101023.25;;;4.53;100.00
67840;BME280;54636;51.684;5.142;2024-03-23T06:22:28;101021.38;;;4.63;100.00
67840;BME280;54636;51.684;5.142;2024-03-23T06:24:53;101027.03;;;4.78;100.00
67840;BME280;54636;51.684;5.142;2024-03-23T06:27:19;101028.19;;;4.89;100.00
67840;BME280;54636;51.684;5.142;2024-03-23T06:29:44;101010.22;;;4.86;100.00
67840;BME280;54636;51.684;5.142;2024-03-23T06:32:09;101019.81;;;4.87;100.00
67840;BME280;54636;51.684;5.142;2024-03-23T06:34:35;101015.19;;;4.88;100.00
67840;BME280;54636;51.684;5.142;2024-03-23T06:37:00;101023.03;;;4.95;100.00
67840;BME280;54636;51.684;5.142;2024-03-23T06:39:25;101026.31;;;5.12;100.00
67840;BME280;54636;51.684;5.142;2024-03-23T06:41:54;101033.94;;;5.35;100.00
67840;BME280;54636;51.684;5.142;2024-03-23T06:44:20;101025.91;;;5.44;100.00
67840;BME280;54636;51.684;5.142;2024-03-23T06:46:46;101007.63;;;5.39;100.00
67840;BME280;54636;51.684;5.142;2024-03-23T06:49:12;101010.38;;;5.48;100.00
67840;BME280;54636;51.684;5.142;2024-03-23T06:51:38;101025.03;;;5.47;100.00
67840;BME280;54636;51.684;5.142;2024-03-23T06:54:04;101014.88;;;5.51;100.00
67840;BME280;54636;51.684;5.142;2024-03-23T06:56:30;101029.09;;;5.52;100.00
67840;BME280;54636;51.684;5.142;2024-03-23T06:58:56;101032.69;;;5.49;100.00
67840;BME280;54636;51.684;5.142;2024-03-23T07:01:22;101020.97;;;5.43;100.00
67840;BME280;54636;51.684;5.142;2024-03-23T07:03:47;101022.84;;;5.33;100.00
67840;BME280;54636;51.684;5.142;2024-03-23T07:06:13;101022.03;;;5.23;100.00
67840;BME280;54636;51.684;5.142;2024-03-23T07:08:38;101027.69;;;5.16;100.00
67840;BME280;54636;51.684;5.142;2024-03-23T07:11:03;101030.81;;;5.15;100.00
67840;BME280;54636;51.684;5.142;2024-03-23T07:13:30;101028.91;;;5.24;100.00
67840;BME280;54636;51.684;5.142;2024-03-23T07:15:55;101032.00;;;5.36;100.00
67840;BME280;54636;51.684;5.142;2024-03-23T07:18:21;101035.06;;;5.47;100.00
67840;BME280;54636;51.684;5.142;2024-03-23T07:20:54;101035.13;;;5.56;100.00
67840;BME280;54636;51.684;5.142;2024-03-23T07:23:19;101036.88;;;5.72;100.00
67840;BME280;54636;51.684;5.142;2024-03-23T07:25:45;101030.19;;;5.85;100.00
67840;BME280;54636;51.684;5.142;2024-03-23T07:28:10;101031.50;;;6.03;100.00
67840;BME280;54636;51.684;5.142;2024-03-23T07:30:35;101029.03;;;6.26;100.00
67840;BME280;54636;51.684;5.142;2024-03-23T07:33:01;101027.75;;;6.58;100.00
67840;BME280;54636;51.684;5.142;2024-03-23T07:35:26;101027.06;;;6.94;100.00
67840;BME280;54636;51.684;5.142;2024-03-23T07:37:51;101033.63;;;7.30;100.00
67840;BME280;54636;51.684;5.142;2024-03-23T07:40:17;101031.66;;;7.49;100.00
67840;BME280;54636;51.684;5.142;2024-03-23T07:42:42;101030.00;;;7.60;100.00
67840;BME280;54636;51.684;5.142;2024-03-23T07:45:08;101020.22;;;7.63;100.00
67840;BME280;54636;51.684;5.142;2024-03-23T07:47:34;101023.09;;;7.59;100.00
67840;BME280;54636;51.684;5.142;2024-03-23T07:50:00;101017.22;;;7.61;100.00
67840;BME280;54636;51.684;5.142;2024-03-23T07:52:28;101022.00;;;7.75;100.00
67840;BME280;54636;51.684;5.142;2024-03-23T07:54:53;101020.38;;;7.69;100.00
67840;BME280;54636;51.684;5.142;2024-03-23T07:57:19;101013.63;;;7.55;100.00
67840;BME280;54636;51.684;5.142;2024-03-23T07:59:44;101024.44;;;7.55;100.00
67840;BME280;54636;51.684;5.142;2024-03-23T08:02:09;101023.97;;;7.66;100.00
67840;BME280;54636;51.684;5.142;2024-03-23T08:04:36;101022.31;;;7.68;100.00
67840;BME280;54636;51.684;5.142;2024-03-23T08:07:01;101023.81;;;7.69;100.00
67840;BME280;54636;51.684;5.142;2024-03-23T08:09:26;101021.88;;;7.70;100.00
67840;BME280;54636;51.684;5.142;2024-03-23T08:11:52;101027.75;;;7.59;100.00
67840;BME280;54636;51.684;5.142;2024-03-23T08:14:17;101023.13;;;7.41;100.00
67840;BME280;54636;51.684;5.142;2024-03-23T08:16:42;101020.28;;;7.26;100.00
67840;BME280;54636;51.684;5.142;2024-03-23T08:19:13;101022.56;;;7.10;100.00
67840;BME280;54636;51.684;5.142;2024-03-23T08:21:39;100996.75;;;6.81;100.00
67840;BME280;54636;51.684;5.142;2024-03-23T08:24:04;101013.72;;;6.91;100.00
67840;BME280;54636;51.684;5.142;2024-03-23T08:26:30;101021.66;;;7.04;100.00
67840;BME280;54636;51.684;5.142;2024-03-23T08:28:55;101018.16;;;7.40;100.00
67840;BME280;54636;51.684;5.142;2024-03-23T08:31:21;101015.78;;;7.84;100.00
67840;BME280;54636;51.684;5.142;2024-03-23T08:33:46;101010.66;;;8.28;100.00
67840;BME280;54636;51.684;5.142;2024-03-23T08:36:12;101010.38;;;8.50;100.00
67840;BME280;54636;51.684;5.142;2024-03-23T08:38:39;101004.03;;;8.77;100.00
67840;BME280;54636;51.684;5.142;2024-03-23T08:41:09;101013.44;;;8.90;100.00
67840;BME280;54636;51.684;5.142;2024-03-23T08:43:38;101016.78;;;8.85;100.00
67840;BME280;54636;51.684;5.142;2024-03-23T08:46:11;101017.25;;;8.60;100.00
67840;BME280;54636;51.684;5.142;2024-03-23T08:48:37;101013.22;;;8.55;100.00
67840;BME280;54636;51.684;5.142;2024-03-23T08:51:04;101014.72;;;8.23;100.00
67840;BME280;54636;51.684;5.142;2024-03-23T08:53:30;101025.50;;;8.00;100.00
67840;BME280;54636;51.684;5.142;2024-03-23T08:55:59;101020.16;;;7.81;100.00
67840;BME280;54636;51.684;5.142;2024-03-23T08:58:26;101023.38;;;7.62;100.00
67840;BME280;54636;51.684;5.142;2024-03-23T09:00:52;101019.66;;;7.50;100.00
67840;BME280;54636;51.684;5.142;2024-03-23T09:03:18;101018.59;;;7.56;100.00
67840;BME280;54636;51.684;5.142;2024-03-23T09:05:43;101013.31;;;7.71;100.00
67840;BME280;54636;51.684;5.142;2024-03-23T09:08:09;101015.13;;;7.98;100.00
67840;BME280;54636;51.684;5.142;2024-03-23T09:10:41;101022.97;;;8.29;100.00
67840;BME280;54636;51.684;5.142;2024-03-23T09:13:07;101008.84;;;8.58;100.00
67840;BME280;54636;51.684;5.142;2024-03-23T09:15:34;101005.03;;;8.65;100.00
67840;BME280;54636;51.684;5.142;2024-03-23T09:18:00;100997.66;;;8.65;100.00
67840;BME280;54636;51.684;5.142;2024-03-23T09:20:25;100988.28;;;8.51;100.00
67840;BME280;54636;51.684;5.142;2024-03-23T09:22:51;100986.28;;;8.37;100.00
67840;BME280;54636;51.684;5.142;2024-03-23T09:25:16;100996.19;;;8.40;100.00
67840;BME280;54636;51.684;5.142;2024-03-23T09:27:41;100993.16;;;8.62;100.00
67840;BME280;54636;51.684;5.142;2024-03-23T09:30:07;100995.88;;;9.01;100.00
67840;BME280;54636;51.684;5.142;2024-03-23T09:32:32;100991.50;;;9.33;100.00
67840;BME280;54636;51.684;5.142;2024-03-23T09:34:58;100992.63;;;9.41;100.00
67840;BME280;54636;51.684;5.142;2024-03-23T09:37:23;101000.31;;;9.42;100.00
67840;BME280;54636;51.684;5.142;2024-03-23T09:39:48;101003.75;;;9.43;100.00
67840;BME280;54636;51.684;5.142;2024-03-23T09:42:14;100993.75;;;9.34;100.00
67840;BME280;54636;51.684;5.142;2024-03-23T09:44:40;100993.47;;;9.32;100.00
67840;BME280;54636;51.684;5.142;2024-03-23T09:47:05;100988.72;;;9.27;100.00
67840;BME280;54636;51.684;5.142;2024-03-23T09:49:32;100991.16;;;9.40;100.00
67840;BME280;54636;51.684;5.142;2024-03-23T09:52:01;101001.34;;;9.45;100.00
67840;BME280;54636;51.684;5.142;2024-03-23T09:54:27;100996.44;;;9.78;100.00
67840;BME280;54636;51.684;5.142;2024-03-23T09:56:52;100982.06;;;10.07;99.11
67840;BME280;54636;51.684;5.142;2024-03-23T09:59:18;101008.41;;;10.36;92.18
67840;BME280;54636;51.684;5.142;2024-03-23T10:01:43;101018.72;;;10.17;90.12
67840;BME280;54636;51.684;5.142;2024-03-23T10:04:09;101015.63;;;9.75;92.57
67840;BME280;54636;51.684;5.142;2024-03-23T10:06:34;101015.25;;;9.23;99.37
67840;BME280;54636;51.684;5.142;2024-03-23T10:09:00;101019.69;;;8.97;100.00
67840;BME280;54636;51.684;5.142;2024-03-23T10:11:25;101007.75;;;9.03;100.00
67840;BME280;54636;51.684;5.142;2024-03-23T10:13:52;101001.31;;;9.01;100.00
67840;BME280;54636;51.684;5.142;2024-03-23T10:16:22;101005.16;;;9.23;100.00
67840;BME280;54636;51.684;5.142;2024-03-23T10:18:48;101003.47;;;9.41;100.00
67840;BME280;54636;51.684;5.142;2024-03-23T10:21:15;101009.94;;;9.73;100.00
67840;BME280;54636;51.684;5.142;2024-03-23T10:23:44;101001.81;;;10.08;100.00
67840;BME280;54636;51.684;5.142;2024-03-23T10:26:17;101003.09;;;10.12;97.50
67840;BME280;54636;51.684;5.142;2024-03-23T10:31:16;100999.97;;;9.99;96.01
67840;BME280;54636;51.684;5.142;2024-03-23T10:33:46;101001.09;;;9.78;96.75
67840;BME280;54636;51.684;5.142;2024-03-23T10:36:12;101002.56;;;9.58;97.27
67840;BME280;54636;51.684;5.142;2024-03-23T10:38:40;100999.81;;;9.29;100.00
67840;BME280;54636;51.684;5.142;2024-03-23T10:41:07;100983.72;;;9.11;90.42
67840;BME280;54636;51.684;5.142;2024-03-23T10:43:33;100995.44;;;9.02;92.86
67840;BME280;54636;51.684;5.142;2024-03-23T10:45:58;101006.91;;;8.97;94.68
67840;BME280;54636;51.684;5.142;2024-03-23T10:48:24;101012.69;;;8.90;98.94
67840;BME280;54636;51.684;5.142;2024-03-23T10:50:49;101004.75;;;8.63;100.00
67840;BME280;54636;51.684;5.142;2024-03-23T10:53:15;100994.09;;;8.35;100.00
67840;BME280;54636;51.684;5.142;2024-03-23T10:55:43;101004.16;;;8.02;100.00
67840;BME280;54636;51.684;5.142;2024-03-23T10:58:10;101006.91;;;7.92;100.00
67840;BME280;54636;51.684;5.142;2024-03-23T11:00:38;100997.66;;;7.75;100.00
67840;BME280;54636;51.684;5.142;2024-03-23T11:03:29;101000.88;;;7.55;100.00
67840;BME280;54636;51.684;5.142;2024-03-23T11:05:55;100992.88;;;7.70;100.00
67840;BME280;54636;51.684;5.142;2024-03-23T11:08:37;100994.38;;;8.04;100.00
67840;BME280;54636;51.684;5.142;2024-03-23T11:11:19;100998.19;;;8.54;100.00
67840;BME280;54636;51.684;5.142;2024-03-23T11:13:51;100995.63;;;9.28;100.00
67840;BME280;54636;51.684;5.142;2024-03-23T11:18:46;100985.25;;;10.41;95.87
67840;BME280;54636;51.684;5.142;2024-03-23T11:24:15;101025.19;;;9.55;100.00
67840;BME280;54636;51.684;5.142;2024-03-23T11:26:41;101002.44;;;8.46;100.00
67840;BME280;54636;51.684;5.142;2024-03-23T11:29:13;101010.53;;;7.80;100.00
67840;BME280;54636;51.684;5.142;2024-03-23T11:31:46;100989.72;;;7.72;100.00
67840;BME280;54636;51.684;5.142;2024-03-23T11:34:12;100993.53;;;7.89;100.00
67840;BME280;54636;51.684;5.142;2024-03-23T11:36:38;100985.56;;;7.94;100.00
67840;BME280;54636;51.684;5.142;2024-03-23T11:39:19;100983.31;;;7.93;100.00
67840;BME280;54636;51.684;5.142;2024-03-23T11:41:52;100979.97;;;7.98;100.00
67840;BME280;54636;51.684;5.142;2024-03-23T11:44:25;100977.78;;;8.20;100.00
67840;BME280;54636;51.684;5.142;2024-03-23T11:46:51;100975.47;;;8.52;100.00
67840;BME280;54636;51.684;5.142;2024-03-23T11:49:24;100972.47;;;8.74;100.00
67840;BME280;54636;51.684;5.142;2024-03-23T11:51:50;100975.78;;;8.93;100.00
67840;BME280;54636;51.684;5.142;2024-03-23T11:54:16;100971.50;;;9.15;100.00
67840;BME280;54636;51.684;5.142;2024-03-23T11:56:58;100980.94;;;9.35;100.00
67840;BME280;54636;51.684;5.142;2024-03-23T11:59:39;100976.94;;;9.45;100.00
67840;BME280;54636;51.684;5.142;2024-03-23T12:02:12;100965.63;;;9.46;100.00
67840;BME280;54636;51.684;5.142;2024-03-23T12:04:41;100973.66;;;9.41;100.00
67840;BME280;54636;51.684;5.142;2024-03-23T12:07:17;100970.09;;;9.20;100.00
67840;BME280;54636;51.684;5.142;2024-03-23T12:09:46;100971.72;;;8.73;100.00
67840;BME280;54636;51.684;5.142;2024-03-23T12:12:17;100974.47;;;8.16;100.00
67840;BME280;54636;51.684;5.142;2024-03-23T12:15:01;100976.84;;;7.90;100.00
67840;BME280;54636;51.684;5.142;2024-03-23T12:17:26;100960.78;;;7.87;100.00
67840;BME280;54636;51.684;5.142;2024-03-23T12:19:52;100961.28;;;8.09;100.00
67840;BME280;54636;51.684;5.142;2024-03-23T12:22:21;100951.41;;;8.30;100.00
67840;BME280;54636;51.684;5.142;2024-03-23T12:24:47;100944.75;;;8.40;100.00
67840;BME280;54636;51.684;5.142;2024-03-23T12:27:13;100943.09;;;8.57;100.00
67840;BME280;54636;51.684;5.142;2024-03-23T12:29:38;100942.75;;;8.65;100.00
67840;BME280;54636;51.684;5.142;2024-03-23T12:32:05;100959.19;;;8.61;100.00
67840;BME280;54636;51.684;5.142;2024-03-23T12:34:30;100957.72;;;8.75;100.00
67840;BME280;54636;51.684;5.142;2024-03-23T12:36:56;100972.13;;;8.81;99.67
67840;BME280;54636;51.684;5.142;2024-03-23T12:39:22;100981.16;;;8.78;100.00
67840;BME280;54636;51.684;5.142;2024-03-23T12:41:48;100968.47;;;8.45;100.00
67840;BME280;54636;51.684;5.142;2024-03-23T12:44:13;100959.88;;;8.23;100.00
67840;BME280;54636;51.684;5.142;2024-03-23T12:46:41;100968.72;;;8.23;100.00
67840;BME280;54636;51.684;5.142;2024-03-23T12:49:06;100973.19;;;8.36;100.00
67840;BME280;54636;51.684;5.142;2024-03-23T12:51:32;100965.00;;;8.69;100.00
67840;BME280;54636;51.684;5.142;2024-03-23T12:53:58;100966.63;;;8.90;99.76
67840;BME280;54636;51.684;5.142;2024-03-23T12:56:23;100955.78;;;8.90;96.01
67840;BME280;54636;51.684;5.142;2024-03-23T12:58:48;100942.91;;;9.00;98.09
67840;BME280;54636;51.684;5.142;2024-03-23T13:01:17;100949.34;;;9.17;100.00
67840;BME280;54636;51.684;5.142;2024-03-23T13:03:42;100959.25;;;9.20;98.26
67840;BME280;54636;51.684;5.142;2024-03-23T13:06:10;100971.50;;;9.15;97.59
67840;BME280;54636;51.684;5.142;2024-03-23T13:08:35;100965.88;;;8.89;97.03
67840;BME280;54636;51.684;5.142;2024-03-23T13:11:00;100973.88;;;8.45;100.00
67840;BME280;54636;51.684;5.142;2024-03-23T13:13:26;100958.13;;;8.11;100.00
67840;BME280;54636;51.684;5.142;2024-03-23T13:15:51;100952.38;;;7.52;100.00
67840;BME280;54636;51.684;5.142;2024-03-23T13:18:17;100950.16;;;7.32;100.00
67840;BME280;54636;51.684;5.142;2024-03-23T13:20:42;100950.78;;;7.18;100.00
67840;BME280;54636;51.684;5.142;2024-03-23T13:23:08;100948.38;;;7.29;100.00
67840;BME280;54636;51.684;5.142;2024-03-23T13:25:34;100956.13;;;7.54;100.00
67840;BME280;54636;51.684;5.142;2024-03-23T13:27:59;100946.03;;;7.64;100.00
67840;BME280;54636;51.684;5.142;2024-03-23T13:30:24;100944.38;;;7.67;100.00
67840;BME280;54636;51.684;5.142;2024-03-23T13:32:50;100938.50;;;7.68;100.00
67840;BME280;54636;51.684;5.142;2024-03-23T13:35:16;100932.66;;;7.70;100.00
67840;BME280;54636;51.684;5.142;2024-03-23T13:37:42;100930.28;;;7.63;100.00
67840;BME280;54636;51.684;5.142;2024-03-23T13:40:08;100927.41;;;7.66;100.00
67840;BME280;54636;51.684;5.142;2024-03-23T13:42:33;100924.00;;;7.80;100.00
67840;BME280;54636;51.684;5.142;2024-03-23T13:44:58;100919.56;;;8.01;100.00
67840;BME280;54636;51.684;5.142;2024-03-23T13:47:24;100920.94;;;8.20;100.00